This is the latest recevied weather packets stored in our database for station/object AA0RD-13. If no packets are shown the sender has not sent any weather packets the latest 10 day(s).
| Time | Temp. | Humidity | Pressure | Rain* | Wind** | Luminosity | Snow |
|---|---|---|---|---|---|---|---|
| 1777613605 | 12.78° C | 87% | 1016.5 hPa | 0 mm | - | - | - |
| 1777612412 | 12.22° C | 89% | 1016.5 hPa | 0 mm | - | - | - |
| 1777611506 | 12.22° C | 89% | 1016.7 hPa | 0 mm | - | - | - |
| 1777610599 | 11.67° C | 92% | 1016.6 hPa | 0 mm | - | - | - |
| 1777610311 | 11.11° C | 92% | 1016.7 hPa | 0 mm | - | - | - |
| 1777610001 | 11.11° C | 92% | 1016.7 hPa | 0 mm | - | - | - |
| 1777609696 | 11.11° C | 92% | 1016.7 hPa | 0 mm | - | - | - |
| 1777608791 | 11.11° C | 92% | 1016.8 hPa | 0 mm | - | - | - |
| 1777607003 | 11.11° C | 94% | 1016.8 hPa | 0 mm | - | - | - |
| 1777606405 | 11.11° C | 94% | 1016.7 hPa | 0 mm | - | - | - |
| 1777602497 | 11.67° C | 92% | 1016.7 hPa | 0 mm | - | - | - |
| 1777601899 | 11.67° C | 92% | 1016.7 hPa | 0 mm | - | - | - |
| 1777601595 | 11.67° C | 93% | 1016.8 hPa | 0 mm | - | - | - |
| 1777600692 | 11.67° C | 91% | 1016.9 hPa | 0 mm | - | - | - |
| 1777600402 | 12.22° C | 89% | 1017 hPa | 0 mm | - | - | - |
| 1777599825 | 12.78° C | 86% | 1017 hPa | 0 mm | - | - | - |
| 1777599495 | 13.33° C | 84% | 1017 hPa | 0 mm | - | - | - |
| 1777598898 | 13.89° C | 83% | 1016.9 hPa | 0 mm | - | - | - |
| 1777597400 | 14.44° C | 76% | 1016.9 hPa | 0 mm | - | - | - |
| 1777596491 | 13.89° C | 77% | 1016.9 hPa | 0 mm | - | - | - |
| 1777595895 | 14.44° C | 76% | 1017 hPa | 0 mm | - | - | - |
| 1777594106 | 16.11° C | 76% | 1017.4 hPa | 0 mm | - | - | - |
| 1777592626 | 16.11° C | 76% | 1017.8 hPa | 0 mm | - | - | - |
| 1777591989 | 16.11° C | 76% | 1017.9 hPa | 0 mm | - | - | - |
| 1777590793 | 15.56° C | 77% | 1018.3 hPa | 0 mm | - | - | - |
* Rain latest hour (hover to see other rain measurements)
** Current wind speed in m/s (hover to see current wind gust speed)